createdAt,value
2023-01-17T00:55:01.338Z,175.66
2023-01-17T00:56:01.341Z,174.13
2023-01-17T00:57:01.328Z,173.48
2023-01-17T00:58:01.302Z,175.10
2023-01-17T00:59:01.297Z,174.81
2023-01-17T01:00:01.298Z,170.49
2023-01-17T01:01:01.451Z,174.93
2023-01-17T01:02:01.332Z,175.08
2023-01-17T01:03:01.246Z,171.46
2023-01-17T01:04:01.233Z,171.57
2023-01-17T01:05:01.213Z,174.40
2023-01-17T01:06:01.206Z,171.88
2023-01-17T01:07:01.188Z,173.93
2023-01-17T01:08:01.173Z,169.62
2023-01-17T01:09:01.176Z,171.59
2023-01-17T01:10:01.139Z,173.90
2023-01-17T01:11:01.127Z,169.31
2023-01-17T01:12:01.109Z,169.13
2023-01-17T01:13:01.098Z,171.53
2023-01-17T01:14:01.093Z,171.15
2023-01-17T01:15:01.068Z,168.77
2023-01-17T01:16:01.130Z,170.73
2023-01-17T01:17:01.029Z,170.57
2023-01-17T01:18:01.016Z,172.58
2023-01-17T01:19:01.041Z,171.16
2023-01-17T01:20:00.996Z,169.96
2023-01-17T01:21:00.985Z,172.25
2023-01-17T01:22:00.964Z,172.30
2023-01-17T01:23:00.950Z,171.95
2023-01-17T01:24:00.939Z,170.46
2023-01-17T01:25:00.921Z,170.24
2023-01-17T01:26:00.896Z,170.99
2023-01-17T01:27:00.893Z,172.31
2023-01-17T01:28:00.892Z,170.75
2023-01-17T01:29:00.880Z,170.75
2023-01-17T01:30:00.852Z,170.96
2023-01-17T01:31:00.829Z,170.77
2023-01-17T01:32:00.808Z,168.46
2023-01-17T01:33:00.799Z,168.51
2023-01-17T01:34:00.772Z,171.83
2023-01-17T01:35:00.774Z,174.16
2023-01-17T01:36:00.745Z,172.16
2023-01-17T01:37:00.725Z,170.82
2023-01-17T01:38:00.703Z,170.30
2023-01-17T01:39:00.688Z,172.56
2023-01-17T01:40:00.679Z,170.36
2023-01-17T01:41:00.665Z,169.40
2023-01-17T01:42:00.642Z,170.02
2023-01-17T01:43:00.647Z,170.57
2023-01-17T01:44:00.619Z,171.68
2023-01-17T01:45:00.601Z,169.75
2023-01-17T01:46:00.661Z,168.61
2023-01-17T01:47:00.561Z,168.85
2023-01-17T01:48:00.555Z,169.20
2023-01-17T01:49:00.543Z,169.74
2023-01-17T01:50:00.525Z,170.75
2023-01-17T01:51:00.517Z,172.54
2023-01-17T01:52:00.504Z,172.38
2023-01-17T01:53:00.496Z,170.96
2023-01-17T01:54:00.474Z,167.77
2023-01-17T01:55:00.465Z,170.31
2023-01-17T01:56:00.449Z,172.20
2023-01-17T01:57:00.439Z,173.67
2023-01-17T01:58:00.421Z,170.18
2023-01-17T01:59:00.411Z,170.94
2023-01-17T02:00:00.405Z,172.10
2023-01-17T02:01:00.434Z,169.93
2023-01-17T02:02:00.372Z,169.86
2023-01-17T02:03:00.366Z,170.21
2023-01-17T02:04:00.390Z,170.37
2023-01-17T02:05:01.935Z,170.65
2023-01-17T02:06:00.553Z,171.04
2023-01-17T02:07:00.547Z,171.35
2023-01-17T02:08:00.521Z,172.42
2023-01-17T02:09:00.512Z,170.80
2023-01-17T02:10:00.508Z,170.50
2023-01-17T02:11:00.500Z,169.16
2023-01-17T02:12:00.491Z,169.26
2023-01-17T02:13:00.516Z,171.18
2023-01-17T02:14:00.489Z,169.56
2023-01-17T02:15:00.460Z,168.93
2023-01-17T02:16:00.567Z,169.57
2023-01-17T02:17:00.445Z,168.23
2023-01-17T02:18:00.439Z,167.63
2023-01-17T02:19:00.428Z,169.85
2023-01-17T02:20:00.423Z,168.07
2023-01-17T02:21:00.415Z,169.15
2023-01-17T02:22:00.406Z,167.99
2023-01-17T02:23:00.396Z,169.31
2023-01-17T02:24:00.387Z,168.04
2023-01-17T02:25:00.374Z,170.26
2023-01-17T02:26:00.367Z,167.51
2023-01-17T02:27:00.374Z,168.12
2023-01-17T02:28:00.348Z,168.51
2023-01-17T02:29:00.351Z,167.92
2023-01-17T02:30:00.339Z,169.18
2023-01-17T02:31:00.342Z,168.45
2023-01-17T02:32:00.317Z,165.76
2023-01-17T02:33:00.309Z,168.21
2023-01-17T02:34:00.301Z,166.45
2023-01-17T02:35:00.296Z,168.42
2023-01-17T02:36:00.287Z,169.61
2023-01-17T02:37:00.257Z,166.82
2023-01-17T02:38:00.243Z,169.34
2023-01-17T02:39:00.240Z,167.36
2023-01-17T02:40:00.237Z,167.21
2023-01-17T02:41:00.231Z,169.86
2023-01-17T02:42:00.196Z,168.44
2023-01-17T02:43:00.196Z,165.61
2023-01-17T02:44:00.176Z,168.98
2023-01-17T02:45:00.180Z,168.48
2023-01-17T02:46:00.193Z,168.42
2023-01-17T02:47:00.133Z,166.39
2023-01-17T02:48:00.124Z,168.60
2023-01-17T02:49:00.122Z,167.99
2023-01-17T02:50:00.119Z,165.11
2023-01-17T02:51:00.104Z,169.53
2023-01-17T02:52:00.079Z,168.18
2023-01-17T02:53:00.073Z,166.69
2023-01-17T02:54:00.039Z,167.15
2023-01-17T02:55:00.037Z,166.17
2023-01-17T02:56:00.035Z,167.89
2023-01-17T02:57:00.010Z,168.05
2023-01-17T02:57:59.992Z,164.55
2023-01-17T02:58:59.984Z,166.76
2023-01-17T02:59:59.976Z,166.11
2023-01-17T03:01:00.089Z,168.86
2023-01-17T03:02:00.165Z,168.02
2023-01-17T03:02:59.952Z,169.03
2023-01-17T03:03:59.932Z,168.80
2023-01-17T03:04:59.929Z,168.51
2023-01-17T03:05:59.927Z,169.98
2023-01-17T03:06:59.900Z,167.87
2023-01-17T03:07:59.879Z,167.60
2023-01-17T03:08:59.873Z,168.06
2023-01-17T03:09:59.863Z,165.39
2023-01-17T03:10:59.859Z,165.21
2023-01-17T03:11:59.859Z,162.31
2023-01-17T03:12:59.825Z,168.25
2023-01-17T03:13:59.852Z,165.24
2023-01-17T03:14:59.803Z,167.71
2023-01-17T03:15:59.791Z,166.36
2023-01-17T03:16:59.787Z,166.50
2023-01-17T03:17:59.775Z,168.85
2023-01-17T03:18:59.779Z,169.85
2023-01-17T03:19:59.762Z,167.00
2023-01-17T03:20:59.735Z,166.50
2023-01-17T03:21:59.715Z,166.59
2023-01-17T03:22:59.710Z,167.02
2023-01-17T03:23:59.694Z,165.94
2023-01-17T03:24:59.691Z,167.13
2023-01-17T03:25:59.675Z,167.04
2023-01-17T03:26:59.664Z,165.98
2023-01-17T03:27:59.655Z,166.18
2023-01-17T03:28:59.658Z,166.32
2023-01-17T03:29:59.644Z,166.43
2023-01-17T03:30:59.695Z,166.57
2023-01-17T03:31:59.624Z,166.47
2023-01-17T03:32:59.618Z,168.30
2023-01-17T03:33:59.605Z,169.08
2023-01-17T03:34:59.598Z,167.38
2023-01-17T03:35:59.588Z,168.34
2023-01-17T03:36:59.572Z,167.03
2023-01-17T03:37:59.567Z,166.33
2023-01-17T03:38:59.557Z,168.30
2023-01-17T03:39:59.542Z,167.69
2023-01-17T03:40:59.535Z,166.75
2023-01-17T03:41:59.534Z,167.32
2023-01-17T03:42:59.513Z,162.76
2023-01-17T03:43:59.514Z,166.83
2023-01-17T03:44:59.499Z,164.79
2023-01-17T03:45:59.571Z,167.14
2023-01-17T03:46:59.480Z,167.01
2023-01-17T03:47:59.483Z,165.34
2023-01-17T03:48:59.466Z,164.12
2023-01-17T03:49:59.446Z,166.81
2023-01-17T03:50:59.437Z,167.50
2023-01-17T03:51:59.417Z,165.86
2023-01-17T03:52:59.405Z,165.75
2023-01-17T03:53:59.407Z,164.23
2023-01-17T03:54:59.381Z,163.08
2023-01-17T03:55:59.371Z,167.38
2023-01-17T03:56:59.358Z,163.24
2023-01-17T03:57:59.347Z,167.20
2023-01-17T03:58:59.322Z,164.30
2023-01-17T03:59:59.337Z,165.08
2023-01-17T04:00:59.383Z,164.03
2023-01-17T04:01:59.366Z,164.70
2023-01-17T04:02:59.297Z,164.79
2023-01-17T04:03:59.268Z,165.16
2023-01-17T04:04:59.251Z,165.23
2023-01-17T04:05:59.259Z,165.22
2023-01-17T04:06:59.233Z,165.57
2023-01-17T04:07:59.226Z,164.69
2023-01-17T04:08:59.215Z,165.33
2023-01-17T04:09:59.199Z,164.72
2023-01-17T04:10:59.185Z,166.70
2023-01-17T04:11:59.178Z,165.07
2023-01-17T04:12:59.175Z,165.64
2023-01-17T04:13:59.180Z,166.29
2023-01-17T04:14:59.144Z,164.62
2023-01-17T04:15:59.142Z,166.21
2023-01-17T04:16:59.139Z,165.61
2023-01-17T04:17:59.117Z,164.99
2023-01-17T04:18:59.119Z,165.54
2023-01-17T04:19:59.087Z,164.50
2023-01-17T04:20:59.075Z,164.03
2023-01-17T04:21:59.073Z,164.17
2023-01-17T04:22:59.041Z,166.97
2023-01-17T04:27:58.984Z,165.98
2023-01-17T04:28:58.968Z,165.02
2023-01-17T04:29:58.951Z,163.49
2023-01-17T04:30:59.006Z,164.51
2023-01-17T04:31:58.942Z,166.00
2023-01-17T04:32:58.917Z,165.18
2023-01-17T04:33:58.909Z,164.17
2023-01-17T04:34:58.893Z,163.30
2023-01-17T08:13:55.520Z,168.98
2023-01-17T08:14:55.492Z,174.81
2023-01-17T08:15:55.489Z,189.29
2023-01-17T08:16:55.471Z,183.83
2023-01-17T08:17:55.447Z,184.23
2023-01-17T08:18:55.424Z,191.96
2023-01-17T08:19:55.423Z,195.33
2023-01-17T08:20:55.391Z,208.50
2023-01-17T08:21:55.371Z,220.95
2023-01-17T08:22:55.347Z,210.66
2023-01-17T08:23:55.323Z,217.04
2023-01-17T08:24:55.318Z,225.99
2023-01-17T08:25:55.287Z,228.70
2023-01-17T08:26:55.257Z,241.93
2023-01-17T08:27:55.232Z,234.53
2023-01-17T08:28:55.208Z,233.88
2023-01-17T08:29:55.198Z,239.50
2023-01-17T08:30:55.166Z,242.93
2023-01-17T08:31:55.188Z,250.00
2023-01-17T08:32:55.112Z,246.95
2023-01-17T08:33:55.089Z,235.41
2023-01-17T08:34:55.060Z,237.02
2023-01-17T08:35:55.030Z,244.04
2023-01-17T08:36:54.991Z,246.96
2023-01-17T08:37:54.962Z,241.50
2023-01-17T08:38:54.936Z,241.62
2023-01-17T08:39:54.917Z,250.00
2023-01-17T08:40:54.892Z,251.29
2023-01-17T08:41:54.871Z,249.53
2023-01-17T08:42:54.855Z,249.71
2023-01-17T08:43:54.829Z,249.75
2023-01-17T08:44:54.803Z,249.17
2023-01-17T08:45:54.817Z,251.03
2023-01-17T08:46:54.772Z,246.00
2023-01-17T08:47:54.724Z,246.11
2023-01-17T08:48:54.690Z,247.10
2023-01-17T08:49:54.861Z,249.78
2023-01-17T08:50:54.638Z,249.31
2023-01-17T08:51:54.620Z,255.99
2023-01-17T08:53:54.558Z,247.07
2023-01-17T08:55:54.483Z,248.93
2023-01-17T08:56:54.454Z,248.09
2023-01-17T08:57:54.481Z,248.23
2023-01-17T08:58:54.384Z,245.75
2023-01-17T08:59:54.357Z,250.19
2023-01-17T09:00:54.393Z,252.56
2023-01-17T09:01:54.489Z,256.60
2023-01-17T09:02:54.257Z,248.65
2023-01-17T09:03:54.304Z,242.02
2023-01-17T09:04:54.197Z,240.39
2023-01-17T09:05:54.153Z,238.91
2023-01-17T09:06:54.124Z,241.11
2023-01-17T09:07:54.081Z,249.52
2023-01-17T09:08:56.823Z,247.30
2023-01-17T09:09:54.027Z,236.00
2023-01-17T09:10:53.971Z,234.25
2023-01-17T09:11:53.936Z,236.98
2023-01-17T09:12:53.902Z,243.28
2023-01-17T09:13:53.859Z,248.58
2023-01-17T09:14:53.898Z,243.21
2023-01-17T09:15:54.058Z,238.00
2023-01-17T09:16:53.802Z,235.41
2023-01-17T09:17:53.730Z,233.90
2023-01-17T09:18:53.677Z,249.98
2023-01-17T09:19:53.648Z,246.15
2023-01-17T09:20:53.604Z,246.31
2023-01-17T09:21:53.570Z,236.59
2023-01-17T09:22:53.543Z,234.97
2023-01-17T09:23:53.505Z,241.46
2023-01-17T09:24:53.484Z,241.88
2023-01-17T09:25:53.425Z,243.14
2023-01-17T09:26:53.413Z,243.35
2023-01-17T09:27:53.356Z,239.03
2023-01-17T09:28:53.344Z,234.35
2023-01-17T09:29:53.281Z,247.41
2023-01-17T09:30:53.290Z,248.67
2023-01-17T09:31:53.220Z,247.08
2023-01-17T09:32:53.177Z,247.17
2023-01-17T09:33:53.166Z,240.18
2023-01-17T09:34:53.161Z,237.81
2023-01-17T09:35:53.077Z,246.75
2023-01-17T09:36:53.057Z,236.38
2023-01-17T09:37:53.007Z,227.46
2023-01-17T09:38:52.963Z,220.01
2023-01-17T09:39:52.949Z,201.78
2023-01-17T09:40:52.892Z,206.53
2023-01-17T09:41:52.879Z,208.14
2023-01-17T09:42:52.847Z,141.71
2023-01-17T09:43:52.817Z,136.36
2023-01-17T09:44:52.819Z,118.50
2023-01-17T09:45:52.835Z,130.69
2023-01-17T09:46:52.762Z,98.48
2023-01-17T09:47:52.753Z,127.26
2023-01-17T09:48:52.741Z,139.72
2023-01-17T09:49:52.723Z,145.59
2023-01-17T09:50:52.704Z,144.67
2023-01-17T09:51:52.687Z,146.73
2023-01-17T09:52:52.666Z,151.14
2023-01-17T09:53:52.647Z,157.80
2023-01-17T09:54:52.626Z,171.69
2023-01-17T09:55:52.601Z,179.94
2023-01-17T09:56:52.578Z,165.52
2023-01-17T09:57:52.749Z,173.08
2023-01-17T09:58:52.535Z,175.43
2023-01-17T10:00:02.559Z,185.06
2023-01-17T10:00:53.603Z,185.47
2023-01-17T10:01:52.678Z,186.50
2023-01-17T10:02:52.729Z,186.12
2023-01-17T10:03:52.471Z,191.04
2023-01-17T10:04:52.372Z,195.83
2023-01-17T10:05:52.336Z,200.97
2023-01-17T10:06:52.305Z,211.62
2023-01-17T10:07:52.267Z,206.76
2023-01-17T10:08:52.237Z,206.85
2023-01-17T10:09:52.198Z,201.10
2023-01-17T10:10:53.154Z,208.54
2023-01-17T10:11:52.121Z,218.10
2023-01-17T10:12:52.180Z,228.80
2023-01-17T10:13:52.053Z,221.77
2023-01-17T10:14:52.017Z,217.88
2023-01-17T10:15:51.984Z,221.34
2023-01-17T10:16:51.980Z,221.69
2023-01-17T10:17:51.910Z,233.93
2023-01-17T10:18:51.874Z,241.67
2023-01-17T10:19:51.839Z,242.79
2023-01-17T10:20:51.795Z,246.37
2023-01-17T10:21:51.763Z,247.58
2023-01-17T10:22:51.723Z,247.34
2023-01-17T10:23:51.694Z,249.84
2023-01-17T10:24:51.656Z,249.10
2023-01-17T10:25:51.599Z,247.59
2023-01-17T10:26:51.576Z,247.36
2023-01-17T10:27:51.529Z,245.77
2023-01-17T10:28:51.499Z,245.95
2023-01-17T10:29:51.462Z,247.20
2023-01-17T10:30:51.453Z,249.94
2023-01-17T10:31:51.380Z,245.98
2023-01-17T10:32:51.396Z,245.93
2023-01-17T10:33:51.280Z,246.00
2023-01-17T10:34:51.260Z,243.67
2023-01-17T10:35:51.196Z,246.98
2023-01-17T10:36:51.139Z,248.29
2023-01-17T10:37:51.101Z,242.01
2023-01-17T10:38:51.065Z,238.73
2023-01-17T10:39:51.023Z,230.50
2023-01-17T10:40:50.992Z,228.92
2023-01-17T10:41:50.943Z,240.93
2023-01-17T10:42:50.926Z,238.31
2023-01-17T10:43:50.866Z,232.83
2023-01-17T10:44:50.821Z,223.59
2023-01-17T10:45:50.789Z,228.27
2023-01-17T10:46:50.740Z,235.15
2023-01-17T10:47:50.696Z,233.11
2023-01-17T10:48:50.675Z,233.26
2023-01-17T10:49:50.628Z,234.36
2023-01-17T10:50:50.611Z,229.02
2023-01-17T10:51:50.564Z,230.28
2023-01-17T10:52:50.503Z,228.87
2023-01-17T10:53:50.469Z,227.00
2023-01-17T10:54:50.436Z,230.22
2023-01-17T10:55:50.387Z,227.54
2023-01-17T10:56:50.347Z,225.49
2023-01-17T10:57:50.304Z,226.68
2023-01-17T10:58:50.264Z,223.86
2023-01-17T10:59:50.232Z,226.63
2023-01-17T11:00:50.244Z,219.87
2023-01-17T11:01:51.313Z,216.49
2023-01-17T11:02:50.162Z,213.69
2023-01-17T11:03:50.101Z,213.08
2023-01-17T11:04:50.073Z,217.11
2023-01-17T11:05:50.022Z,219.70
2023-01-17T11:06:58.098Z,213.92
2023-01-17T11:07:50.963Z,213.92
2023-01-17T11:08:49.920Z,209.79
2023-01-17T11:09:49.879Z,209.12
2023-01-17T11:10:49.845Z,214.62
2023-01-17T11:11:49.807Z,216.06
2023-01-17T11:12:49.778Z,208.56
2023-01-17T11:13:49.776Z,198.07
2023-01-17T11:14:49.716Z,201.52
2023-01-17T11:15:49.838Z,201.97
2023-01-17T11:16:49.643Z,204.62
2023-01-17T11:17:49.613Z,211.34
2023-01-17T11:18:49.586Z,206.00
2023-01-17T11:19:49.552Z,201.55
2023-01-17T11:20:49.527Z,213.58
2023-01-17T11:21:49.480Z,238.27
2023-01-17T11:22:49.449Z,250.00
2023-01-17T11:23:49.416Z,248.84
2023-01-17T11:24:49.384Z,243.72
2023-01-17T11:25:49.354Z,240.22
2023-01-17T11:26:49.370Z,235.76
2023-01-17T11:27:49.286Z,232.37
2023-01-17T11:28:49.259Z,240.06
2023-01-17T11:29:49.228Z,232.27
2023-01-17T11:30:49.235Z,230.98
2023-01-17T11:31:49.171Z,228.00
2023-01-17T11:32:49.173Z,212.85
2023-01-17T11:33:49.140Z,210.54
2023-01-17T11:34:49.097Z,224.63
2023-01-17T11:35:49.058Z,224.84
2023-01-17T11:36:49.038Z,217.84
2023-01-17T11:37:49.034Z,211.43
2023-01-17T11:38:49.003Z,202.16
2023-01-17T11:39:48.965Z,202.30
2023-01-17T11:40:48.945Z,203.65
2023-01-17T11:41:48.945Z,204.57
2023-01-17T11:42:48.902Z,202.37
2023-01-17T13:52:45.994Z,123.15
2023-01-17T13:53:45.974Z,128.48
2023-01-17T13:54:46.023Z,128.36
2023-01-17T13:55:45.936Z,128.11
2023-01-17T13:56:45.929Z,124.55
2023-01-17T13:57:45.905Z,115.84
2023-01-17T13:58:45.873Z,122.45
2023-01-17T13:59:45.863Z,124.00
2023-01-17T14:00:45.866Z,129.69
2023-01-17T14:01:45.933Z,126.43
2023-01-17T14:02:45.829Z,121.19
2023-01-17T14:03:45.788Z,120.00
2023-01-17T14:04:45.767Z,125.03
2023-01-17T14:05:45.750Z,126.60
2023-01-17T14:06:45.748Z,128.99
2023-01-17T14:07:45.723Z,123.83
2023-01-17T14:08:45.721Z,120.61
2023-01-17T14:09:45.677Z,116.13
2023-01-17T14:10:45.695Z,118.77
2023-01-17T14:11:45.645Z,127.76
2023-01-17T14:12:45.618Z,121.76
2023-01-17T14:13:45.629Z,120.01
2023-01-17T14:14:45.586Z,115.40
2023-01-17T14:15:45.559Z,119.82
2023-01-17T14:16:46.380Z,121.71
2023-01-17T14:17:45.522Z,128.80
2023-01-17T14:18:45.525Z,123.42
2023-01-17T14:19:47.434Z,116.78
2023-01-17T14:20:45.458Z,115.87
2023-01-17T14:21:45.454Z,117.34
2023-01-17T14:22:45.425Z,118.74
2023-01-17T14:23:45.412Z,117.94
2023-01-17T14:24:45.393Z,116.58
2023-01-17T14:25:45.382Z,104.78
2023-01-17T14:26:45.374Z,114.27
2023-01-17T14:27:45.362Z,116.72
2023-01-17T14:28:45.336Z,121.88
2023-01-17T14:29:45.328Z,116.34
2023-01-17T14:30:45.314Z,104.95
2023-01-17T14:31:45.355Z,113.08
2023-01-17T14:32:45.286Z,116.83
2023-01-17T14:33:45.268Z,116.77
2023-01-17T14:34:45.254Z,122.71
2023-01-17T14:35:45.239Z,115.04
2023-01-17T14:36:45.205Z,114.83
2023-01-17T14:37:45.206Z,115.17
2023-01-17T14:38:45.191Z,115.56
2023-01-17T14:39:45.148Z,118.54
2023-01-17T14:40:45.132Z,112.88
2023-01-17T14:41:45.111Z,105.27
2023-01-17T14:42:45.101Z,115.33
2023-01-17T14:43:45.081Z,119.81
2023-01-17T14:44:45.053Z,120.40
2023-01-17T14:45:45.165Z,113.14
2023-01-17T14:46:45.015Z,115.07
2023-01-17T14:47:45.032Z,111.36
2023-01-17T14:48:45.003Z,110.51
2023-01-17T14:49:44.967Z,118.40
2023-01-17T14:50:44.968Z,121.60
2023-01-17T14:51:44.949Z,112.51
2023-01-17T14:52:44.932Z,109.62
2023-01-17T14:53:44.891Z,111.51
2023-01-17T14:54:44.868Z,113.08
2023-01-17T14:55:44.845Z,117.13
2023-01-17T14:56:44.827Z,113.69
2023-01-17T14:57:44.831Z,107.37
2023-01-17T14:58:44.953Z,108.01
2023-01-17T14:59:44.782Z,110.66
2023-01-17T15:00:44.772Z,117.68
2023-01-17T15:01:52.507Z,120.46
2023-01-17T15:02:45.858Z,115.11
2023-01-17T15:03:44.701Z,110.47
2023-01-17T15:04:44.683Z,114.86
2023-01-17T15:05:44.669Z,115.53
2023-01-17T15:06:45.781Z,120.15
2023-01-17T15:07:44.880Z,118.47
2023-01-17T15:08:44.855Z,112.86
2023-01-17T15:09:44.849Z,115.25
2023-01-17T15:10:44.820Z,109.66
2023-01-17T15:11:44.805Z,114.06
2023-01-17T15:12:44.805Z,120.68
2023-01-17T15:13:45.322Z,116.01
2023-01-17T15:14:44.762Z,107.89
2023-01-17T15:15:44.741Z,110.19
2023-01-17T15:16:44.781Z,109.53
2023-01-17T15:17:44.724Z,116.39
2023-01-17T15:18:44.693Z,115.34
2023-01-17T15:19:44.682Z,110.24
2023-01-17T15:20:44.660Z,110.06
2023-01-17T15:21:44.649Z,113.25
2023-01-17T15:22:44.642Z,114.45
2023-01-17T15:23:44.609Z,117.62
2023-01-17T15:24:44.639Z,113.94
2023-01-17T15:25:44.581Z,106.39
2023-01-17T15:26:44.577Z,103.62
2023-01-17T15:27:44.553Z,111.00
2023-01-17T15:28:44.542Z,116.97
2023-01-17T15:29:44.536Z,121.24
2023-01-17T15:30:44.513Z,111.07
2023-01-17T15:31:44.498Z,107.22
2023-01-17T15:32:44.471Z,111.11
2023-01-17T15:33:44.480Z,110.52
2023-01-17T15:34:44.461Z,116.96
2023-01-17T15:35:44.421Z,106.94
2023-01-17T15:36:44.407Z,107.06
2023-01-17T15:37:44.384Z,104.35
2023-01-17T15:38:44.360Z,105.18
2023-01-17T15:39:44.346Z,113.59
2023-01-17T15:40:44.335Z,118.38
2023-01-17T15:41:44.320Z,110.73
2023-01-17T15:42:44.286Z,101.53
2023-01-17T15:43:44.269Z,105.80
2023-01-17T15:44:49.214Z,110.76
2023-01-17T15:45:45.256Z,111.02
2023-01-17T15:46:44.194Z,110.82
2023-01-17T15:47:44.176Z,108.95
2023-01-17T15:48:44.182Z,102.74
2023-01-17T15:49:44.139Z,107.27
2023-01-17T15:50:44.142Z,114.58
2023-01-17T15:51:44.124Z,115.19
2023-01-17T15:52:44.079Z,109.42
2023-01-17T15:53:44.112Z,106.65
2023-01-17T15:54:44.045Z,109.10
2023-01-17T15:55:44.034Z,111.89
2023-01-17T15:56:44.015Z,113.71
2023-01-17T15:57:43.999Z,115.70
2023-01-17T15:58:43.978Z,109.03
2023-01-17T15:59:43.973Z,103.11
2023-01-17T16:00:44.093Z,102.14
2023-01-17T16:01:44.156Z,106.82
2023-01-17T16:02:44.006Z,113.06
2023-01-17T16:03:43.908Z,108.70
2023-01-17T16:04:43.884Z,100.73
2023-01-17T16:05:44.021Z,103.99
2023-01-17T16:06:43.846Z,111.07
2023-01-17T16:07:43.845Z,110.81
2023-01-17T16:08:43.825Z,114.00
2023-01-17T16:09:43.792Z,106.15
2023-01-17T16:10:43.779Z,102.30
2023-01-17T16:11:43.763Z,106.02
2023-01-17T16:12:43.745Z,108.40
2023-01-17T16:13:43.739Z,113.74
2023-01-17T16:14:59.609Z,105.49
2023-01-17T16:15:44.710Z,102.93
2023-01-17T16:16:43.734Z,103.31
2023-01-17T16:17:43.668Z,106.41
2023-01-17T16:18:43.675Z,109.00
2023-01-17T16:19:43.635Z,113.08
2023-01-17T16:20:43.622Z,114.61
2023-01-17T16:21:43.614Z,116.10
2023-01-17T16:22:43.602Z,118.00
2023-01-17T16:23:43.576Z,119.75
2023-01-17T16:24:43.560Z,117.46
2023-01-17T16:25:43.529Z,119.83
2023-01-17T16:26:43.516Z,121.31
2023-01-17T16:27:43.498Z,124.33
2023-01-17T16:28:43.486Z,124.07
2023-01-17T16:29:43.467Z,126.78
2023-01-17T16:30:43.462Z,126.34
2023-01-17T16:31:43.437Z,127.53
2023-01-17T16:32:43.411Z,125.44
2023-01-17T16:33:43.430Z,122.12
2023-01-17T16:34:43.390Z,121.90
2023-01-17T16:35:43.353Z,125.43
2023-01-17T16:36:43.342Z,121.86
2023-01-17T16:37:43.314Z,117.34
2023-01-17T16:38:43.305Z,122.22
2023-01-17T16:39:43.283Z,122.62
2023-01-17T16:40:43.263Z,124.81
2023-01-17T16:41:43.255Z,124.79
2023-01-17T16:42:43.228Z,123.45
2023-01-17T16:43:43.204Z,118.03
2023-01-17T16:44:43.192Z,115.05
2023-01-17T16:45:43.166Z,120.84
2023-01-17T16:46:43.153Z,120.00
2023-01-17T16:47:43.135Z,122.35
2023-01-17T16:48:43.123Z,116.35
2023-01-17T16:49:43.102Z,110.00
2023-01-17T16:50:43.090Z,112.43
2023-01-17T16:51:43.086Z,117.16
2023-01-17T16:52:43.070Z,118.70
2023-01-17T16:53:43.042Z,120.81
2023-01-17T16:54:43.038Z,112.64
2023-01-17T16:55:43.032Z,109.10
2023-01-17T16:56:43.029Z,112.29
2023-01-17T16:57:43.005Z,114.57
2023-01-17T16:58:42.987Z,119.75
2023-01-17T16:59:50.713Z,111.22
2023-01-17T17:00:43.964Z,108.05
2023-01-17T17:01:43.111Z,109.38
2023-01-17T17:02:43.028Z,108.49
2023-01-17T17:03:42.940Z,108.78
2023-01-17T17:04:42.956Z,113.41
2023-01-17T17:05:42.887Z,109.38
2023-01-17T17:06:42.877Z,100.01
2023-01-17T17:07:42.904Z,100.40
2023-01-17T17:08:42.843Z,100.64
2023-01-17T17:09:42.845Z,103.03
2023-01-17T17:10:42.818Z,102.92
2023-01-17T17:11:42.813Z,101.94
2023-01-17T17:12:42.790Z,108.80
2023-01-17T17:13:42.795Z,113.05
2023-01-17T17:14:42.763Z,111.33
2023-01-17T17:15:42.837Z,106.21
2023-01-17T17:16:42.734Z,106.61
2023-01-17T17:17:42.720Z,104.99
2023-01-17T17:18:42.722Z,104.10
2023-01-17T17:19:42.690Z,111.15
2023-01-17T17:20:42.677Z,113.89
2023-01-17T17:21:42.664Z,112.00
2023-01-17T17:22:42.638Z,110.60
2023-01-17T17:23:42.631Z,115.64
2023-01-17T17:24:42.607Z,117.19
2023-01-17T17:25:42.594Z,115.40
2023-01-17T17:26:42.583Z,119.80
2023-01-17T17:27:42.553Z,116.04
2023-01-17T17:28:42.534Z,117.63
2023-01-17T17:29:42.520Z,118.78
2023-01-17T17:30:42.504Z,118.36
2023-01-17T17:31:42.490Z,119.09
2023-01-17T17:32:42.475Z,121.64
2023-01-17T17:33:42.443Z,122.83
2023-01-17T17:34:42.442Z,121.54
2023-01-17T17:35:42.415Z,118.13
2023-01-17T17:36:42.391Z,121.65
2023-01-17T17:37:42.381Z,123.48
2023-01-17T17:38:42.357Z,122.88
2023-01-17T17:39:42.352Z,123.95
2023-01-17T17:40:42.351Z,126.14
2023-01-17T17:41:42.329Z,122.74
2023-01-17T17:42:42.284Z,123.44
2023-01-17T17:43:42.265Z,124.91
2023-01-17T17:44:42.260Z,125.97
2023-01-17T17:45:42.237Z,127.57
2023-01-17T17:46:42.274Z,127.42
2023-01-17T17:47:42.192Z,125.33
2023-01-17T17:48:42.180Z,121.78
2023-01-17T17:49:42.148Z,123.57
2023-01-17T17:50:42.126Z,125.43
2023-01-17T17:51:42.108Z,126.19
2023-01-17T17:52:42.095Z,125.09
2023-01-17T17:53:42.062Z,125.03
2023-01-17T17:54:42.047Z,126.62
2023-01-17T17:55:42.031Z,127.55
2023-01-17T17:56:42.015Z,128.06
2023-01-17T17:57:41.998Z,127.03
2023-01-17T17:58:41.976Z,126.58
2023-01-17T17:59:41.946Z,125.60
2023-01-17T18:00:41.936Z,126.18
2023-01-17T18:01:41.905Z,126.31
2023-01-17T18:02:41.883Z,123.40
2023-01-17T18:03:41.855Z,122.21
2023-01-17T18:04:41.885Z,127.44
2023-01-17T18:05:42.283Z,128.76
2023-01-17T18:06:41.781Z,126.60
2023-01-17T18:07:41.784Z,127.67
2023-01-17T18:08:41.746Z,124.98
2023-01-17T18:09:41.727Z,126.23
2023-01-17T18:10:41.697Z,130.62
2023-01-17T18:11:41.702Z,131.18
2023-01-17T18:12:41.654Z,128.55
2023-01-17T18:13:41.622Z,125.52
2023-01-17T18:14:41.593Z,128.57
2023-01-17T18:15:41.566Z,126.71
2023-01-17T18:16:41.620Z,129.58
2023-01-17T18:17:41.530Z,126.47
2023-01-17T18:18:41.528Z,114.35
2023-01-17T18:19:41.487Z,121.73
2023-01-17T18:20:41.469Z,122.47
2023-01-17T18:21:41.461Z,122.11
2023-01-17T18:22:41.433Z,122.19
2023-01-17T18:23:41.420Z,115.82
2023-01-17T18:24:41.407Z,112.52
2023-01-17T18:25:41.383Z,120.60
2023-01-17T18:26:41.366Z,117.84
2023-01-17T18:27:41.330Z,121.50
2023-01-17T18:28:41.313Z,109.74
2023-01-17T18:29:41.308Z,104.15
2023-01-17T18:30:41.290Z,108.04
2023-01-17T18:31:41.298Z,110.72
2023-01-17T18:32:41.237Z,116.11
2023-01-17T18:33:41.209Z,116.66
2023-01-17T18:34:41.223Z,106.64
2023-01-17T18:35:41.171Z,106.89
2023-01-17T18:36:41.153Z,102.23
2023-01-17T18:37:41.139Z,110.12
2023-01-17T18:38:41.119Z,115.38
2023-01-17T18:39:41.107Z,102.15
2023-01-17T18:40:41.106Z,99.29
2023-01-17T18:41:41.078Z,102.38
2023-01-17T18:42:41.050Z,107.93
2023-01-17T18:43:41.026Z,110.96
2023-01-17T18:44:41.021Z,101.86
2023-01-17T18:45:41.016Z,100.17
2023-01-17T18:46:41.045Z,103.63
2023-01-17T18:47:40.966Z,107.67
2023-01-17T18:48:40.954Z,109.07
2023-01-17T18:49:40.923Z,107.71
2023-01-17T18:50:40.916Z,97.33
2023-01-17T18:51:40.919Z,98.27
2023-01-17T18:52:40.888Z,101.41
2023-01-17T18:53:40.868Z,107.44
2023-01-17T18:54:40.864Z,111.53
2023-01-17T18:55:40.834Z,100.61
2023-01-17T18:56:40.829Z,96.93
2023-01-17T18:57:40.798Z,98.86
2023-01-17T18:58:40.792Z,103.26
2023-01-17T18:59:40.767Z,109.93
2023-01-17T19:00:40.807Z,100.24
2023-01-17T19:01:40.797Z,90.09
2023-01-17T19:02:40.734Z,97.72
2023-01-17T19:03:40.784Z,99.35
2023-01-17T19:04:40.687Z,99.56
2023-01-17T19:05:40.668Z,100.16
2023-01-17T19:06:40.715Z,92.79
2023-01-17T19:07:40.653Z,91.29
2023-01-17T19:08:40.639Z,101.49
2023-01-17T19:09:40.609Z,100.94
2023-01-17T19:10:40.599Z,103.20
2023-01-17T19:11:40.588Z,101.10
2023-01-17T19:12:40.573Z,94.19
2023-01-17T19:13:40.561Z,88.95
2023-01-17T19:14:40.548Z,96.27
2023-01-17T19:15:40.532Z,103.24